Robert Cenac — WDH4434 — position and weather

sailwx.info

Track history (hours):
 
Tides and Currents Weather Stations Pressure Air Temp Water Temp Dewpoint Dewpoint Depression Visibility Wind Speed Wind Dir Waves Ship Positions

Robert Cenac

Owner: Cenac Marine Services, Houma, LA. More information available from US FCC via Universal Licensing System and Coast Guard Vessel Documentation Center.

Last reported at 2018-Jun-21 19:51 UTC. Time now 2018-Jun-22 07:47 UTC.
Position N 29°35' W 090°36'.

Length 17 m.

Type: Tug. MMSI: 367617690.

Date/timePositionNaut miles runAvg speedWind from/ knotsBaromVisibWave heightAir tempDewpointWater temp
2018-Jun-21 19:51N 29°35' W 090°36'0 0.6
2018-Jun-21 19:28N 29°35' W 090°37'0 0.0
2018-Jun-21 18:58N 29°35' W 090°37'0 0.0
2018-Jun-21 18:28N 29°35' W 090°37'0 0.3
2018-Jun-21 17:30N 29°35' W 090°36'0 0.0
2018-Jun-21 16:36N 29°35' W 090°36'0 0.0
2018-Jun-21 16:18N 29°35' W 090°36'0 0.0
2018-Jun-21 15:48N 29°35' W 090°36'0 0.0
2018-Jun-21 14:06N 29°35' W 090°36'0 0.0
2018-Jun-21 13:42N 29°35' W 090°36'0 0.0
2018-Jun-21 13:24N 29°35' W 090°36'0 0.0
2018-Jun-21 12:30N 29°35' W 090°36'0 0.0
2018-Jun-21 07:12N 29°35' W 090°36'0 0.0
2018-Jun-21 04:42N 29°35' W 090°36'0 0.0
2018-Jun-21 04:24N 29°35' W 090°36'0 0.0
2018-Jun-21 03:54N 29°35' W 090°36'0 0.0
2018-Jun-21 02:36N 29°35' W 090°36'0 0.1
2018-Jun-21 02:30N 29°35' W 090°36'0 0.0
2018-Jun-20 23:48N 29°35' W 090°36'0 0.0
2018-Jun-20 23:30N 29°35' W 090°36'0 0.0
2018-Jun-20 23:00N 29°35' W 090°36'0 0.0
2018-Jun-20 22:30N 29°35' W 090°36'0 0.0
2018-Jun-20 21:54N 29°35' W 090°36'0 0.0
2018-Jun-20 21:30N 29°35' W 090°36'0 0.0
2018-Jun-20 21:00N 29°35' W 090°36'0 0.4
2018-Jun-20 20:30N 29°35' W 090°37'0 0.0
2018-Jun-20 04:17N 29°35' W 090°36'0 0.0
2018-Jun-20 03:59N 29°35' W 090°36'0 0.0
2018-Jun-20 02:35N 29°35' W 090°36'0 0.0
2018-Jun-19 23:53N 29°35' W 090°36'0 0.0
2018-Jun-19 23:11N 29°35' W 090°36'0 0.0
2018-Jun-19 19:10N 29°35' W 090°36'0 0.0
2018-Jun-19 17:10N 29°35' W 090°36'0 0.5
2018-Jun-19 16:57N 29°35' W 090°36'1 2.3
2018-Jun-19 16:30N 29°35' W 090°37'2 4.5
2018-Jun-19 16:00N 29°36' W 090°40'2 4.4
2018-Jun-19 15:30N 29°37' W 090°42'0 0.8
2018-Jun-19 15:00N 29°37' W 090°42'2 4.8
2018-Jun-19 14:30N 29°36' W 090°40'3 6.6
2018-Jun-19 14:01N 29°35' W 090°36'0 0.0
2018-Jun-18 18:27N 29°35' W 090°36'3 6.1
2018-Jun-18 18:00N 29°36' W 090°39'3 6.0
2018-Jun-18 17:30N 29°37' W 090°42'2 3.2
2018-Jun-18 16:58N 29°35' W 090°43'0 0.0
2018-Jun-18 16:30N 29°35' W 090°43'2 3.4
2018-Jun-18 15:59N 29°37' W 090°42'3 5.2
2018-Jun-18 15:30N 29°36' W 090°40'3 5.9
2018-Jun-18 15:00N 29°35' W 090°37'0 0.1
2018-Jun-18 12:43N 29°35' W 090°36'0 1.2
2018-Jun-18 12:30N 29°35' W 090°36'0 0.9
2018-Jun-18 12:00N 29°35' W 090°37'0 0.0
2018-Jun-17 22:46N 29°35' W 090°36'0 0.0
2018-Jun-17 22:28N 29°35' W 090°36'0 0.0
2018-Jun-17 18:34N 29°35' W 090°36'0 0.0
2018-Jun-17 16:22N 29°35' W 090°36'0 0.0
2018-Jun-17 15:28N 29°35' W 090°36'0 0.0
2018-Jun-17 14:58N 29°35' W 090°36'0 0.0
2018-Jun-17 14:22N 29°35' W 090°36'0 0.0
2018-Jun-17 13:58N 29°35' W 090°36'0 0.0
2018-Jun-17 13:16N 29°35' W 090°36'0 0.0
2018-Jun-17 12:22N 29°35' W 090°36'0 0.0
2018-Jun-17 11:52N 29°35' W 090°36'0 0.0
2018-Jun-17 11:22N 29°35' W 090°36'0 0.0
2018-Jun-17 09:28N 29°35' W 090°36'0 0.0
2018-Jun-17 08:58N 29°35' W 090°36'0 0.0
2018-Jun-17 08:28N 29°35' W 090°36'0 0.0
2018-Jun-17 07:40N 29°35' W 090°36'0 0.0
2018-Jun-17 07:28N 29°35' W 090°36'0 0.0
2018-Jun-17 06:58N 29°35' W 090°36'0 0.0
2018-Jun-17 05:22N 29°35' W 090°36'0 0.0
2018-Jun-17 04:46N 29°35' W 090°36'0 0.0
2018-Jun-17 04:28N 29°35' W 090°36'0 0.0
2018-Jun-17 01:10N 29°35' W 090°36'0 0.0
2018-Jun-17 00:40N 29°35' W 090°36'0 0.0
2018-Jun-17 00:16N 29°35' W 090°36'0 0.0
2018-Jun-16 23:52N 29°35' W 090°36'0 0.0
2018-Jun-16 21:46N 29°35' W 090°36'0 0.0
2018-Jun-16 21:28N 29°35' W 090°36'0 0.0
2018-Jun-16 20:58N 29°35' W 090°36'0 0.0
2018-Jun-16 15:27N 29°35' W 090°36'0 0.3
2018-Jun-16 14:57N 29°35' W 090°37'0 0.0
2018-Jun-16 10:26N 29°35' W 090°36'0 0.0
2018-Jun-16 09:56N 29°35' W 090°36'0 0.0
2018-Jun-15 21:02N 29°35' W 090°36'0 6.5
2018-Jun-15 21:00N 29°35' W 090°37'3 5.2
2018-Jun-15 20:30N 29°36' W 090°39'3 4.6
2018-Jun-15 19:54N 29°37' W 090°42'0 0.3
2018-Jun-15 19:31N 29°37' W 090°42'2 4.0
2018-Jun-15 19:01N 29°36' W 090°40'2 4.0
2018-Jun-15 18:30N 29°35' W 090°38'1 2.7
2018-Jun-15 18:00N 29°35' W 090°37'0 0.2
2018-Jun-15 17:09N 29°35' W 090°36'0 0.0
2018-Jun-15 14:15N 29°35' W 090°36'0 0.0
2018-Jun-15 01:51N 29°35' W 090°36'0 0.0
2018-Jun-14 19:57N 29°35' W 090°36'0 0.0
2018-Jun-14 16:27N 29°35' W 090°36'0 0.4
2018-Jun-14 16:00N 29°35' W 090°36'0 0.1
2018-Jun-14 15:30N 29°35' W 090°36'0 0.0
2018-Jun-14 08:59N 29°35' W 090°36'3 6.2
2018-Jun-14 08:30N 29°34' W 090°33'7 0.4
2018-Jun-13 12:04N 29°33' W 090°25'1 6.8
2018-Jun-13 11:55N 29°33' W 090°26'3 6.9
2018-Jun-13 11:29N 29°34' W 090°29'3 6.8
2018-Jun-13 11:00N 29°34' W 090°33'3 6.1
2018-Jun-13 10:30N 29°35' W 090°36'0 0.2
2018-Jun-13 10:00N 29°35' W 090°37'0 0.0
2018-Jun-13 01:14N 29°35' W 090°36'0 0.7
2018-Jun-13 01:00N 29°35' W 090°36'1 2.5
2018-Jun-13 00:30N 29°35' W 090°37'2 4.4
2018-Jun-13 00:00N 29°36' W 090°40'2 4.1
2018-Jun-12 23:30N 29°37' W 090°42'0 0.4
2018-Jun-12 23:00N 29°37' W 090°42'3 5.2
2018-Jun-12 22:30N 29°36' W 090°39'3 5.2
2018-Jun-12 22:00N 29°35' W 090°37'0 1.0
2018-Jun-12 21:30N 29°35' W 090°36'0 0.6
2018-Jun-12 20:56N 29°35' W 090°37'0 0.0
2018-Jun-12 20:20N 29°35' W 090°37'0 0.1
2018-Jun-12 19:56N 29°35' W 090°36'0 0.1
2018-Jun-12 19:30N 29°35' W 090°36'0 0.0
2018-Jun-12 13:52N 29°35' W 090°36'0 1.1
2018-Jun-12 13:30N 29°35' W 090°37'0 0.5
2018-Jun-12 12:46N 29°35' W 090°36'0 0.0
2018-Jun-11 22:22N 29°35' W 090°36'1 2.9
2018-Jun-11 22:00N 29°35' W 090°38'2 4.3
2018-Jun-11 21:29N 29°36' W 090°40'3 6.3
2018-Jun-11 21:00N 29°35' W 090°37'0 0.2
2018-Jun-11 20:07N 29°35' W 090°36'0 1.1
2018-Jun-11 19:55N 29°35' W 090°37'  
Track history (hours):
 
Tides and Currents Weather Stations Pressure Air Temp Water Temp Dewpoint Dewpoint Depression Visibility Wind Speed Wind Dir Waves Ship Positions

Robert Cenac

Owner: Cenac Marine Services, Houma, LA. More information available from US FCC via Universal Licensing System and Coast Guard Vessel Documentation Center.

Last reported at 2018-Jun-21 19:51 UTC. Time now 2018-Jun-22 07:47 UTC.
Position N 29°35' W 090°36'.

Length 17 m.

Type: Tug. MMSI: 367617690.

Date/timePositionNaut miles runAvg speedWind from/ knotsBaromVisibWave heightAir tempDewpointWater temp
2018-Jun-21 19:51N 29°35' W 090°36'0 0.6
2018-Jun-21 19:28N 29°35' W 090°37'0 0.0
2018-Jun-21 18:58N 29°35' W 090°37'0 0.0
2018-Jun-21 18:28N 29°35' W 090°37'0 0.3
2018-Jun-21 17:30N 29°35' W 090°36'0 0.0
2018-Jun-21 16:36N 29°35' W 090°36'0 0.0
2018-Jun-21 16:18N 29°35' W 090°36'0 0.0
2018-Jun-21 15:48N 29°35' W 090°36'0 0.0
2018-Jun-21 14:06N 29°35' W 090°36'0 0.0
2018-Jun-21 13:42N 29°35' W 090°36'0 0.0
2018-Jun-21 13:24N 29°35' W 090°36'0 0.0
2018-Jun-21 12:30N 29°35' W 090°36'0 0.0
2018-Jun-21 07:12N 29°35' W 090°36'0 0.0
2018-Jun-21 04:42N 29°35' W 090°36'0 0.0
2018-Jun-21 04:24N 29°35' W 090°36'0 0.0
2018-Jun-21 03:54N 29°35' W 090°36'0 0.0
2018-Jun-21 02:36N 29°35' W 090°36'0 0.1
2018-Jun-21 02:30N 29°35' W 090°36'0 0.0
2018-Jun-20 23:48N 29°35' W 090°36'0 0.0
2018-Jun-20 23:30N 29°35' W 090°36'0 0.0
2018-Jun-20 23:00N 29°35' W 090°36'0 0.0
2018-Jun-20 22:30N 29°35' W 090°36'0 0.0
2018-Jun-20 21:54N 29°35' W 090°36'0 0.0
2018-Jun-20 21:30N 29°35' W 090°36'0 0.0
2018-Jun-20 21:00N 29°35' W 090°36'0 0.4
2018-Jun-20 20:30N 29°35' W 090°37'0 0.0
2018-Jun-20 04:17N 29°35' W 090°36'0 0.0
2018-Jun-20 03:59N 29°35' W 090°36'0 0.0
2018-Jun-20 02:35N 29°35' W 090°36'0 0.0
2018-Jun-19 23:53N 29°35' W 090°36'0 0.0
2018-Jun-19 23:11N 29°35' W 090°36'0 0.0
2018-Jun-19 19:10N 29°35' W 090°36'0 0.0
2018-Jun-19 17:10N 29°35' W 090°36'0 0.5
2018-Jun-19 16:57N 29°35' W 090°36'1 2.3
2018-Jun-19 16:30N 29°35' W 090°37'2 4.5
2018-Jun-19 16:00N 29°36' W 090°40'2 4.4
2018-Jun-19 15:30N 29°37' W 090°42'0 0.8
2018-Jun-19 15:00N 29°37' W 090°42'2 4.8
2018-Jun-19 14:30N 29°36' W 090°40'3 6.6
2018-Jun-19 14:01N 29°35' W 090°36'0 0.0
2018-Jun-18 18:27N 29°35' W 090°36'3 6.1
2018-Jun-18 18:00N 29°36' W 090°39'3 6.0
2018-Jun-18 17:30N 29°37' W 090°42'2 3.2
2018-Jun-18 16:58N 29°35' W 090°43'0 0.0
2018-Jun-18 16:30N 29°35' W 090°43'2 3.4
2018-Jun-18 15:59N 29°37' W 090°42'3 5.2
2018-Jun-18 15:30N 29°36' W 090°40'3 5.9
2018-Jun-18 15:00N 29°35' W 090°37'0 0.1
2018-Jun-18 12:43N 29°35' W 090°36'0 1.2
2018-Jun-18 12:30N 29°35' W 090°36'0 0.9
2018-Jun-18 12:00N 29°35' W 090°37'0 0.0
2018-Jun-17 22:46N 29°35' W 090°36'0 0.0
2018-Jun-17 22:28N 29°35' W 090°36'0 0.0
2018-Jun-17 18:34N 29°35' W 090°36'0 0.0
2018-Jun-17 16:22N 29°35' W 090°36'0 0.0
2018-Jun-17 15:28N 29°35' W 090°36'0 0.0
2018-Jun-17 14:58N 29°35' W 090°36'0 0.0
2018-Jun-17 14:22N 29°35' W 090°36'0 0.0
2018-Jun-17 13:58N 29°35' W 090°36'0 0.0
2018-Jun-17 13:16N 29°35' W 090°36'0 0.0
2018-Jun-17 12:22N 29°35' W 090°36'0 0.0
2018-Jun-17 11:52N 29°35' W 090°36'0 0.0
2018-Jun-17 11:22N 29°35' W 090°36'0 0.0
2018-Jun-17 09:28N 29°35' W 090°36'0 0.0
2018-Jun-17 08:58N 29°35' W 090°36'0 0.0
2018-Jun-17 08:28N 29°35' W 090°36'0 0.0
2018-Jun-17 07:40N 29°35' W 090°36'0 0.0
2018-Jun-17 07:28N 29°35' W 090°36'0 0.0
2018-Jun-17 06:58N 29°35' W 090°36'0 0.0
2018-Jun-17 05:22N 29°35' W 090°36'0 0.0
2018-Jun-17 04:46N 29°35' W 090°36'0 0.0
2018-Jun-17 04:28N 29°35' W 090°36'0 0.0
2018-Jun-17 01:10N 29°35' W 090°36'0 0.0
2018-Jun-17 00:40N 29°35' W 090°36'0 0.0
2018-Jun-17 00:16N 29°35' W 090°36'0 0.0
2018-Jun-16 23:52N 29°35' W 090°36'0 0.0
2018-Jun-16 21:46N 29°35' W 090°36'0 0.0
2018-Jun-16 21:28N 29°35' W 090°36'0 0.0
2018-Jun-16 20:58N 29°35' W 090°36'0 0.0
2018-Jun-16 15:27N 29°35' W 090°36'0 0.3
2018-Jun-16 14:57N 29°35' W 090°37'0 0.0
2018-Jun-16 10:26N 29°35' W 090°36'0 0.0
2018-Jun-16 09:56N 29°35' W 090°36'0 0.0
2018-Jun-15 21:02N 29°35' W 090°36'0 6.5
2018-Jun-15 21:00N 29°35' W 090°37'3 5.2
2018-Jun-15 20:30N 29°36' W 090°39'3 4.6
2018-Jun-15 19:54N 29°37' W 090°42'0 0.3
2018-Jun-15 19:31N 29°37' W 090°42'2 4.0
2018-Jun-15 19:01N 29°36' W 090°40'2 4.0
2018-Jun-15 18:30N 29°35' W 090°38'1 2.7
2018-Jun-15 18:00N 29°35' W 090°37'0 0.2
2018-Jun-15 17:09N 29°35' W 090°36'0 0.0
2018-Jun-15 14:15N 29°35' W 090°36'0 0.0
2018-Jun-15 01:51N 29°35' W 090°36'0 0.0
2018-Jun-14 19:57N 29°35' W 090°36'0 0.0
2018-Jun-14 16:27N 29°35' W 090°36'0 0.4
2018-Jun-14 16:00N 29°35' W 090°36'0 0.1
2018-Jun-14 15:30N 29°35' W 090°36'0 0.0
2018-Jun-14 08:59N 29°35' W 090°36'3 6.2
2018-Jun-14 08:30N 29°34' W 090°33'7 0.4
2018-Jun-13 12:04N 29°33' W 090°25'1 6.8
2018-Jun-13 11:55N 29°33' W 090°26'3 6.9
2018-Jun-13 11:29N 29°34' W 090°29'3 6.8
2018-Jun-13 11:00N 29°34' W 090°33'3 6.1
2018-Jun-13 10:30N 29°35' W 090°36'0 0.2
2018-Jun-13 10:00N 29°35' W 090°37'0 0.0
2018-Jun-13 01:14N 29°35' W 090°36'0 0.7
2018-Jun-13 01:00N 29°35' W 090°36'1 2.5
2018-Jun-13 00:30N 29°35' W 090°37'2 4.4
2018-Jun-13 00:00N 29°36' W 090°40'2 4.1
2018-Jun-12 23:30N 29°37' W 090°42'0 0.4
2018-Jun-12 23:00N 29°37' W 090°42'3 5.2
2018-Jun-12 22:30N 29°36' W 090°39'3 5.2
2018-Jun-12 22:00N 29°35' W 090°37'0 1.0
2018-Jun-12 21:30N 29°35' W 090°36'0 0.6
2018-Jun-12 20:56N 29°35' W 090°37'0 0.0
2018-Jun-12 20:20N 29°35' W 090°37'0 0.1
2018-Jun-12 19:56N 29°35' W 090°36'0 0.1
2018-Jun-12 19:30N 29°35' W 090°36'0 0.0
2018-Jun-12 13:52N 29°35' W 090°36'0 1.1
2018-Jun-12 13:30N 29°35' W 090°37'0 0.5
2018-Jun-12 12:46N 29°35' W 090°36'0 0.0
2018-Jun-11 22:22N 29°35' W 090°36'1 2.9
2018-Jun-11 22:00N 29°35' W 090°38'2 4.3
2018-Jun-11 21:29N 29°36' W 090°40'3 6.3
2018-Jun-11 21:00N 29°35' W 090°37'0 0.2
2018-Jun-11 20:07N 29°35' W 090°36'0 1.1
2018-Jun-11 19:55N 29°35' W 090°37'  

Dump ship's entire track history